Time;durP1;ratioP1;P1;durP2;ratioP2;P2;SDS_P1;SDS_P2;PMS_P1;PMS_P2;Temp;Humidity;BMP_temperature;BMP_pressure;BME280_temperature;BME280_humidity;BME280_pressure;Samples;Min_cycle;Max_cycle;Signal;HPM_P1;HPM_P2
2023/09/15 00:01:05;;;;;;;4.83;4.00;;;16.50;1.00;;;;;;5072833;28;20424;-36
2023/09/15 00:03:31;;;;;;;5.23;3.70;;;16.50;69.70;;;;;;5075463;28;20993;-35
2023/09/15 00:05:57;;;;;;;5.13;4.10;;;16.50;1.00;;;;;;5069490;28;20189;-35
2023/09/15 00:08:22;;;;;;;7.17;4.40;;;16.40;1.00;;;;;;5056204;28;20220;-36
2023/09/15 00:10:48;;;;;;;5.03;3.67;;;16.40;1.00;;;;;;5071500;28;20544;-38
2023/09/15 00:13:15;;;;;;;4.47;4.00;;;16.40;99.90;;;;;;5075789;28;20197;-38
2023/09/15 00:15:41;;;;;;;8.80;4.00;;;16.40;90.60;;;;;;5075933;28;20577;-36
2023/09/15 00:18:07;;;;;;;4.10;3.70;;;16.40;99.90;;;;;;5075332;28;20443;-37
2023/09/15 00:20:33;;;;;;;5.37;4.50;;;16.40;16.50;;;;;;5055625;28;20209;-36
2023/09/15 00:22:59;;;;;;;4.10;3.70;;;16.40;99.90;;;;;;5075212;28;20499;-37
2023/09/15 00:25:26;;;;;;;5.07;4.00;;;16.40;99.90;;;;;;5075225;28;20196;-36
2023/09/15 00:27:53;;;;;;;4.77;4.37;;;16.40;99.90;;;;;;5072227;28;20505;-36
2023/09/15 00:30:21;;;;;;;4.40;4.00;;;16.40;99.90;;;;;;5072755;28;20679;-37
2023/09/15 00:32:48;;;;;;;5.17;4.50;;;16.40;99.90;;;;;;5072554;28;20439;-38
2023/09/15 00:35:16;;;;;;;4.60;4.00;;;16.30;1.00;;;;;;5072958;28;20568;-36
2023/09/15 00:37:43;;;;;;;4.13;3.73;;;16.30;1.00;;;;;;5072747;28;20423;-38
2023/09/15 00:40:10;;;;;;;4.07;3.60;;;16.30;90.70;;;;;;5071049;28;20754;-36
2023/09/15 00:42:37;;;;;;;4.33;3.90;;;16.30;99.90;;;;;;5072807;28;20748;-37
2023/09/15 00:45:05;;;;;;;4.03;3.07;;;16.30;99.90;;;;;;5074131;28;20458;-36
2023/09/15 00:47:33;;;;;;;4.57;3.70;;;16.20;99.90;;;;;;5075653;28;20423;-36
2023/09/15 00:49:59;;;;;;;4.40;3.80;;;16.20;99.90;;;;;;5075379;28;20411;-38
2023/09/15 00:52:25;;;;;;;4.20;3.57;;;16.20;99.90;;;;;;5074081;28;20486;-36
2023/09/15 00:54:53;;;;;;;4.43;4.03;;;16.20;99.90;;;;;;5048863;28;20440;-36
2023/09/15 00:57:19;;;;;;;3.30;3.00;;;16.20;99.90;;;;;;5064425;28;20443;-36
2023/09/15 00:59:44;;;;;;;4.47;4.07;;;16.20;99.90;;;;;;5040768;28;20842;-39
2023/09/15 01:02:10;;;;;;;5.07;3.97;;;16.20;99.90;;;;;;5039966;28;20228;-36
2023/09/15 01:04:35;;;;;;;5.27;3.50;;;16.20;99.90;;;;;;5061000;28;20470;-37
2023/09/15 01:07:05;;;;;;;3.43;3.13;;;16.20;99.90;;;;;;5078822;28;20338;-37
2023/09/15 01:09:31;;;;;;;4.40;3.60;;;16.10;99.90;;;;;;5078031;28;20208;-37
2023/09/15 01:11:57;;;;;;;3.93;3.53;;;16.10;99.90;;;;;;5079414;28;20447;-36
2023/09/15 01:14:22;;;;;;;4.43;3.67;;;16.10;99.90;;;;;;5079384;28;20712;-36
2023/09/15 01:17:25;;;;;;;3.60;3.10;;;16.10;99.90;;;;;;5078607;28;20546;-36
2023/09/15 01:20:23;;;;;;;4.90;4.40;;;16.10;1.00;;;;;;4979104;28;20203;-35
2023/09/15 01:23:04;;;;;;;3.90;3.37;;;16.00;99.90;;;;;;5079627;28;20571;-37
2023/09/15 01:25:33;;;;;;;4.80;3.83;;;16.00;99.90;;;;;;5079496;28;20418;-38
2023/09/15 01:28:41;;;;;;;4.23;3.60;;;16.00;99.90;;;;;;5078800;28;20500;-37
2023/09/15 01:31:08;;;;;;;4.37;3.97;;;16.00;99.90;;;;;;5066828;28;20493;-37
2023/09/15 01:33:36;;;;;;;3.97;3.60;;;15.90;1.00;;;;;;5062045;28;20431;-37
2023/09/15 01:36:01;;;;;;;3.87;3.50;;;15.80;99.90;;;;;;5044545;28;20443;-36
2023/09/15 01:38:27;;;;;;;3.47;3.00;;;15.80;99.90;;;;;;5078963;28;20426;-37
2023/09/15 01:40:52;;;;;;;4.23;3.83;;;15.80;1.00;;;;;;5078636;28;20223;-37
2023/09/15 01:43:18;;;;;;;5.33;4.20;;;15.80;1.00;;;;;;5077417;28;20355;-37
2023/09/15 01:45:44;;;;;;;3.80;3.33;;;15.80;1.00;;;;;;5077551;28;20330;-37
2023/09/15 01:48:10;;;;;;;4.83;3.60;;;15.80;1.00;;;;;;5077247;28;20499;-37
2023/09/15 01:50:35;;;;;;;4.73;3.73;;;15.80;1.00;;;;;;5077335;28;20298;-37
2023/09/15 01:53:01;;;;;;;4.33;3.93;;;15.80;99.90;;;;;;5059802;28;20599;-37
2023/09/15 01:55:27;;;;;;;5.63;4.37;;;15.70;99.90;;;;;;5077251;28;20470;-37
2023/09/15 01:57:53;;;;;;;6.70;3.83;;;15.70;1.00;;;;;;5059603;28;20186;-37
2023/09/15 02:00:18;;;;;;;4.20;3.43;;;15.70;1.00;;;;;;5078251;28;20196;-38
2023/09/15 02:02:44;;;;;;;4.17;3.77;;;15.70;1.00;;;;;;5078571;28;20840;-37
2023/09/15 02:05:23;;;;;;;3.70;3.30;;;15.70;1.00;;;;;;5058227;28;20185;-37
2023/09/15 02:07:48;;;;;;;4.17;3.77;;;15.70;1.00;;;;;;5065835;28;20197;-38
2023/09/15 02:10:14;;;;;;;4.83;4.33;;;15.70;99.90;;;;;;5060065;28;20638;-38
2023/09/15 02:12:40;;;;;;;3.80;3.40;;;15.70;1.00;;;;;;5057965;28;20251;-37
2023/09/15 02:15:06;;;;;;;4.33;3.20;;;15.70;1.00;;;;;;5075179;28;20584;-38
2023/09/15 02:17:31;;;;;;;4.23;3.83;;;15.70;1.00;;;;;;5060153;28;20251;-36
2023/09/15 02:19:57;;;;;;;3.97;3.03;;;15.60;1.00;;;;;;5076839;28;20428;-44
2023/09/15 02:22:23;;;;;;;4.67;3.63;;;15.60;1.00;;;;;;5066674;28;20237;-44
2023/09/15 02:24:48;;;;;;;4.77;4.37;;;15.60;1.00;;;;;;5062917;28;20624;-44
2023/09/15 02:27:14;;;;;;;4.20;3.60;;;15.60;1.00;;;;;;5063725;28;20181;-44
2023/09/15 02:29:39;;;;;;;5.73;4.23;;;15.60;1.00;;;;;;5075882;28;20260;-44
2023/09/15 02:32:05;;;;;;;3.83;3.50;;;15.60;1.80;;;;;;5067032;28;20174;-45
2023/09/15 02:34:31;;;;;;;4.00;3.37;;;15.60;52.70;;;;;;5039282;28;20193;-45
2023/09/15 02:36:56;;;;;;;4.10;3.70;;;15.60;2.00;;;;;;5058066;28;20194;-44
2023/09/15 02:39:22;;;;;;;4.43;3.30;;;15.60;24.40;;;;;;5055921;28;20197;-44
2023/09/15 02:41:48;;;;;;;4.27;3.67;;;15.50;1.00;;;;;;5056454;28;20186;-44
2023/09/15 02:44:13;;;;;;;4.63;3.67;;;15.60;1.00;;;;;;5057108;28;20185;-45
2023/09/15 02:46:39;;;;;;;3.60;3.30;;;15.60;1.00;;;;;;5059544;28;20186;-44
2023/09/15 02:49:04;;;;;;;4.17;3.63;;;15.50;1.00;;;;;;5071644;28;20189;-44
2023/09/15 02:51:30;;;;;;;4.37;3.30;;;15.60;7.50;;;;;;5071221;28;20538;-43
2023/09/15 02:53:56;;;;;;;6.27;3.80;;;15.50;1.00;;;;;;5075257;28;20197;-43
2023/09/15 02:56:23;;;;;;;4.53;3.97;;;15.50;1.00;;;;;;5075377;28;20566;-47
2023/09/15 02:58:49;;;;;;;6.63;3.97;;;15.50;1.00;;;;;;5074879;28;20189;-46
2023/09/15 03:01:15;;;;;;;3.80;3.40;;;15.50;1.00;;;;;;5075668;28;20530;-47
2023/09/15 03:03:41;;;;;;;4.30;3.90;;;15.50;1.00;;;;;;5074564;28;20220;-46
2023/09/15 03:06:09;;;;;;;4.03;3.40;;;15.50;1.00;;;;;;5075553;28;20776;-47
2023/09/15 03:08:35;;;;;;;5.00;3.87;;;15.50;1.00;;;;;;5076271;28;20275;-43
2023/09/15 03:11:01;;;;;;;4.30;3.63;;;15.40;1.00;;;;;;5076437;28;20663;-44
2023/09/15 03:13:27;;;;;;;5.10;3.80;;;15.40;1.00;;;;;;5075701;28;20430;-44
2023/09/15 03:15:52;;;;;;;4.17;3.77;;;15.40;1.00;;;;;;5072921;28;20197;-43
2023/09/15 03:18:18;;;;;;;4.63;4.13;;;15.40;26.10;;;;;;5075245;28;20528;-44
2023/09/15 03:20:44;;;;;;;4.17;3.70;;;15.40;99.90;;;;;;5075533;28;20201;-44
2023/09/15 03:23:09;;;;;;;4.00;3.60;;;15.40;99.90;;;;;;5057220;28;20494;-44
2023/09/15 03:25:35;;;;;;;4.07;3.63;;;15.40;99.90;;;;;;5075225;28;20209;-44
2023/09/15 03:28:01;;;;;;;3.90;3.40;;;15.40;99.90;;;;;;5075996;28;20267;-44
2023/09/15 03:30:27;;;;;;;3.57;3.27;;;15.30;99.90;;;;;;5075725;28;20173;-44
2023/09/15 03:32:53;;;;;;;4.00;3.63;;;15.30;99.90;;;;;;5075101;28;20431;-44
2023/09/15 03:35:20;;;;;;;4.60;4.00;;;15.30;99.90;;;;;;5075312;28;20754;-44
2023/09/15 03:37:45;;;;;;;4.47;3.60;;;15.30;99.90;;;;;;5074175;28;20418;-43
2023/09/15 03:40:11;;;;;;;4.37;3.97;;;15.30;99.90;;;;;;5071183;28;20420;-43
2023/09/15 03:42:38;;;;;;;4.20;3.80;;;15.30;99.90;;;;;;5075634;28;20201;-44
2023/09/15 03:45:08;;;;;;;6.50;3.53;;;15.30;99.90;;;;;;5075688;28;20576;-44
2023/09/15 03:47:34;;;;;;;5.77;3.83;;;15.20;99.90;;;;;;5075398;28;20458;-44
2023/09/15 03:50:01;;;;;;;6.33;4.07;;;15.20;1.00;;;;;;5074742;28;20467;-43
2023/09/15 03:52:26;;;;;;;3.60;3.30;;;15.20;1.00;;;;;;5075305;28;20516;-44
2023/09/15 03:54:52;;;;;;;4.53;4.13;;;15.10;1.00;;;;;;5074815;28;20933;-44
2023/09/15 03:57:17;;;;;;;4.00;3.60;;;14.90;1.00;;;;;;5075016;28;20208;-42
2023/09/15 03:59:43;;;;;;;5.47;3.40;;;15.10;99.90;;;;;;5074381;28;20195;-44
2023/09/15 04:02:08;;;;;;;5.10;3.80;;;15.10;99.90;;;;;;5074238;28;20213;-37
2023/09/15 04:04:34;;;;;;;4.57;3.70;;;15.10;99.90;;;;;;5074634;28;20573;-37
2023/09/15 04:07:00;;;;;;;4.70;4.27;;;15.20;99.90;;;;;;5073127;28;20181;-35
2023/09/15 04:09:25;;;;;;;4.10;3.60;;;15.30;99.90;;;;;;5075565;28;20173;-37
2023/09/15 04:11:51;;;;;;;3.73;3.43;;;15.30;8.60;;;;;;5075495;28;20280;-39
2023/09/15 04:14:19;;;;;;;4.93;4.37;;;15.30;1.00;;;;;;5075638;28;20189;-37
2023/09/15 04:16:45;;;;;;;4.90;4.03;;;15.40;1.00;;;;;;5074074;28;20415;-38
2023/09/15 04:19:10;;;;;;;4.40;3.93;;;15.40;1.00;;;;;;5074907;28;20442;-38
2023/09/15 04:21:38;;;;;;;4.70;4.30;;;15.40;1.00;;;;;;5074804;28;20361;-38
2023/09/15 04:24:05;;;;;;;3.83;3.53;;;15.40;99.90;;;;;;5074597;28;20208;-39
2023/09/15 04:26:31;;;;;;;4.97;3.93;;;15.40;99.90;;;;;;5074290;28;20435;-36
2023/09/15 04:28:58;;;;;;;4.80;3.30;;;15.40;99.90;;;;;;5072342;28;20454;-36
2023/09/15 04:31:23;;;;;;;5.13;4.30;;;15.40;1.00;;;;;;5074287;28;20189;-37
2023/09/15 04:33:49;;;;;;;3.50;3.20;;;15.40;99.90;;;;;;5076162;28;20465;-36
2023/09/15 04:36:16;;;;;;;4.30;3.90;;;15.40;99.90;;;;;;5058189;28;20186;-41
2023/09/15 04:38:42;;;;;;;4.13;3.73;;;15.40;99.90;;;;;;5074512;28;20514;-37
2023/09/15 04:41:07;;;;;;;4.07;3.77;;;15.40;99.90;;;;;;5071512;28;20915;-35
2023/09/15 04:43:33;;;;;;;4.27;3.87;;;15.40;99.90;;;;;;5054566;28;20893;-37
2023/09/15 04:45:58;;;;;;;4.43;4.03;;;15.40;99.90;;;;;;5051055;28;20325;-37
2023/09/15 04:48:24;;;;;;;4.70;4.20;;;15.40;99.90;;;;;;5060985;28;20445;-38
2023/09/15 04:50:49;;;;;;;4.47;4.07;;;15.30;1.00;;;;;;5076298;28;20233;-37
2023/09/15 04:53:15;;;;;;;4.70;4.00;;;15.10;1.00;;;;;;5074294;28;20470;-36
2023/09/15 04:55:41;;;;;;;4.53;4.13;;;14.90;1.00;;;;;;5075179;28;20177;-38
2023/09/15 04:58:06;;;;;;;5.17;4.30;;;14.70;99.90;;;;;;5074348;28;20371;-38
2023/09/15 05:00:34;;;;;;;4.10;3.70;;;14.50;99.90;;;;;;5052199;28;20190;-38
2023/09/15 05:03:00;;;;;;;5.70;4.17;;;14.50;1.00;;;;;;5050635;28;20216;-38
2023/09/15 05:05:26;;;;;;;4.80;4.30;;;14.30;4.80;;;;;;5063478;28;20423;-37
2023/09/15 05:07:52;;;;;;;7.17;5.13;;;14.20;99.90;;;;;;5073327;28;20442;-37
2023/09/15 05:10:18;;;;;;;6.10;4.60;;;14.20;99.90;;;;;;5074136;28;20412;-38
2023/09/15 05:12:44;;;;;;;6.30;5.10;;;14.00;1.00;;;;;;5074117;28;20177;-37
2023/09/15 05:15:10;;;;;;;4.20;3.83;;;14.00;1.00;;;;;;5072178;28;20893;-39
2023/09/15 05:17:36;;;;;;;5.10;4.47;;;13.90;1.00;;;;;;5053269;28;20650;-37
2023/09/15 05:20:02;;;;;;;6.00;4.57;;;13.90;1.00;;;;;;5050762;28;20546;-37
2023/09/15 05:22:28;;;;;;;4.80;4.30;;;13.90;1.00;;;;;;5066687;28;20205;-37
2023/09/15 05:24:55;;;;;;;4.90;4.40;;;13.90;1.00;;;;;;5052060;28;20404;-36
2023/09/15 05:27:21;;;;;;;4.10;3.73;;;13.90;1.00;;;;;;5066595;28;20516;-36
2023/09/15 05:29:47;;;;;;;5.60;4.17;;;13.90;21.20;;;;;;5069209;28;20434;-38
2023/09/15 05:32:13;;;;;;;6.07;4.70;;;13.90;9.20;;;;;;5069412;28;20228;-38
2023/09/15 05:34:39;;;;;;;4.90;4.37;;;14.00;1.00;;;;;;5070497;28;20423;-39
2023/09/15 05:37:05;;;;;;;5.20;4.70;;;13.90;1.00;;;;;;5069868;28;20942;-38
2023/09/15 05:39:31;;;;;;;5.20;4.70;;;13.80;11.40;;;;;;5071513;28;20912;-36
2023/09/15 05:41:56;;;;;;;6.77;4.60;;;14.00;64.80;;;;;;5069146;28;20204;-38
2023/09/15 05:44:22;;;;;;;4.47;4.07;;;14.00;99.90;;;;;;5053967;28;20186;-39
2023/09/15 05:46:48;;;;;;;8.57;4.73;;;14.00;99.90;;;;;;5069984;28;20209;-37
2023/09/15 05:49:13;;;;;;;5.27;4.70;;;14.00;12.80;;;;;;5052514;28;20572;-38
2023/09/15 05:51:39;;;;;;;6.63;4.70;;;14.00;55.80;;;;;;5072186;28;20229;-38
2023/09/15 05:54:05;;;;;;;5.50;4.77;;;14.00;99.90;;;;;;5054977;28;20570;-38
2023/09/15 05:56:31;;;;;;;5.43;4.83;;;14.00;99.90;;;;;;5074124;28;20224;-39
2023/09/15 05:58:58;;;;;;;5.63;5.07;;;14.10;99.90;;;;;;5075082;28;20193;-36
2023/09/15 06:01:23;;;;;;;4.97;4.40;;;14.20;99.90;;;;;;5075687;28;20493;-38
2023/09/15 06:03:49;;;;;;;5.70;4.10;;;14.40;7.90;;;;;;5073530;28;20471;-39
2023/09/15 06:06:18;;;;;;;4.67;4.20;;;14.40;1.00;;;;;;5074458;28;20185;-40
2023/09/15 06:08:43;;;;;;;5.70;5.20;;;14.60;1.00;;;;;;5059900;28;20287;-39
2023/09/15 06:11:09;;;;;;;6.10;5.30;;;14.80;1.00;;;;;;5041735;28;20828;-41
2023/09/15 06:13:36;;;;;;;5.43;4.93;;;15.00;99.90;;;;;;5078021;28;20463;-39
2023/09/15 06:16:04;;;;;;;9.83;5.40;;;15.20;99.90;;;;;;5076676;28;20478;-37
2023/09/15 06:18:30;;;;;;;4.77;4.37;;;15.60;1.00;;;;;;5059423;28;20949;-37
2023/09/15 06:20:56;;;;;;;8.63;5.43;;;15.40;99.90;;;;;;5074492;28;20430;-38
2023/09/15 06:23:22;;;;;;;5.00;4.50;;;15.60;72.60;;;;;;5074811;28;20462;-38
2023/09/15 06:25:48;;;;;;;4.90;4.40;;;15.70;99.20;;;;;;5057622;28;20439;-41
2023/09/15 06:28:14;;;;;;;5.33;4.77;;;15.80;99.90;;;;;;5058803;28;20720;-37
2023/09/15 06:30:40;;;;;;;6.10;5.40;;;16.00;1.00;;;;;;5075094;28;20498;-38
2023/09/15 06:33:05;;;;;;;5.57;5.03;;;16.20;99.90;;;;;;5072100;28;20231;-40
2023/09/15 06:35:31;;;;;;;5.33;4.83;;;16.30;1.00;;;;;;5074339;28;20200;-39
2023/09/15 06:37:56;;;;;;;7.20;5.60;;;16.40;37.50;;;;;;5042716;28;20194;-37
2023/09/15 06:40:22;;;;;;;6.40;5.43;;;16.40;1.00;;;;;;5076967;28;20514;-39
2023/09/15 06:42:48;;;;;;;5.27;4.50;;;16.50;1.00;;;;;;5075622;28;20220;-39
2023/09/15 06:45:13;;;;;;;6.80;5.13;;;16.60;1.00;;;;;;5074923;28;20486;-39
2023/09/15 06:47:39;;;;;;;5.43;4.90;;;16.70;1.00;;;;;;5075125;28;20197;-38
2023/09/15 06:50:05;;;;;;;6.87;4.77;;;16.80;99.90;;;;;;5074096;28;20239;-40
2023/09/15 06:52:31;;;;;;;6.47;5.80;;;17.00;99.90;;;;;;5042848;28;20173;-39
2023/09/15 06:54:57;;;;;;;6.40;5.80;;;17.10;99.90;;;;;;5078775;28;20839;-41
2023/09/15 06:57:22;;;;;;;7.27;6.10;;;17.20;1.00;;;;;;5075569;28;20185;-38
2023/09/15 06:59:48;;;;;;;6.13;5.23;;;17.30;1.00;;;;;;5074962;28;20185;-40
2023/09/15 07:02:14;;;;;;;6.70;5.80;;;17.50;1.00;;;;;;5074611;28;20745;-38
2023/09/15 07:04:39;;;;;;;6.33;5.70;;;17.70;1.00;;;;;;5075953;28;20243;-39
2023/09/15 07:07:05;;;;;;;5.63;4.77;;;17.90;99.90;;;;;;5057293;28;20178;-38
2023/09/15 07:09:30;;;;;;;5.77;5.07;;;18.10;99.90;;;;;;5074473;28;20193;-38
2023/09/15 07:11:56;;;;;;;7.97;5.30;;;18.40;99.90;;;;;;5073966;28;20189;-39
2023/09/15 07:14:21;;;;;;;9.53;7.07;;;18.50;1.00;;;;;;5073187;28;20522;-39
2023/09/15 07:16:48;;;;;;;6.30;5.63;;;18.70;1.00;;;;;;5073271;28;20189;-39
2023/09/15 07:19:14;;;;;;;6.20;5.60;;;18.70;1.00;;;;;;5071969;28;20594;-39
2023/09/15 07:21:41;;;;;;;6.23;5.63;;;18.80;1.00;;;;;;5071244;28;20431;-39
2023/09/15 07:24:10;;;;;;;5.30;4.80;;;18.90;1.00;;;;;;5072609;28;20275;-41
2023/09/15 07:26:35;;;;;;;6.80;5.70;;;19.10;1.00;;;;;;5071941;28;20530;-39
2023/09/15 07:29:01;;;;;;;6.10;5.50;;;19.30;99.90;;;;;;5072419;28;20522;-39
2023/09/15 07:31:27;;;;;;;8.03;5.80;;;19.50;99.90;;;;;;5072003;28;20181;-40
2023/09/15 07:33:53;;;;;;;8.33;6.50;;;19.70;99.90;;;;;;5072059;28;20578;-42
2023/09/15 07:36:19;;;;;;;6.80;6.20;;;19.90;59.40;;;;;;5073289;28;20520;-40
2023/09/15 07:38:46;;;;;;;7.40;6.30;;;20.20;1.00;;;;;;5073261;28;20432;-42
2023/09/15 07:41:12;;;;;;;6.40;5.77;;;20.20;1.00;;;;;;5073952;28;20204;-38
2023/09/15 07:43:38;;;;;;;7.80;6.80;;;20.40;1.00;;;;;;5072916;28;20481;-38
2023/09/15 07:46:05;;;;;;;9.30;7.27;;;20.50;1.00;;;;;;5073271;28;20706;-41
2023/09/15 07:48:31;;;;;;;7.60;6.90;;;20.70;1.00;;;;;;5072512;28;20189;-40
2023/09/15 07:50:57;;;;;;;8.80;7.50;;;20.80;1.00;;;;;;5071386;28;20883;-39
2023/09/15 07:53:22;;;;;;;8.83;8.03;;;21.00;1.00;;;;;;5073986;28;20427;-40
2023/09/15 07:55:48;;;;;;;6.77;6.13;;;21.10;1.00;;;;;;5070893;28;20676;-41
2023/09/15 07:58:14;;;;;;;8.70;7.47;;;21.30;1.00;;;;;;5068517;28;20189;-38
2023/09/15 08:00:40;;;;;;;7.90;6.97;;;21.50;99.90;;;;;;5069850;28;20216;-39
2023/09/15 08:03:06;;;;;;;7.67;6.97;;;21.50;99.90;;;;;;5071564;28;20407;-41
2023/09/15 08:05:32;;;;;;;8.93;8.03;;;21.60;99.90;;;;;;5054115;28;20419;-38
2023/09/15 08:07:57;;;;;;;7.20;6.50;;;21.80;99.90;;;;;;5069739;28;20671;-38
2023/09/15 08:10:23;;;;;;;7.63;6.93;;;22.10;99.90;;;;;;5073882;28;20212;-39
2023/09/15 08:12:52;;;;;;;6.97;6.47;;;22.20;99.90;;;;;;5073175;28;20315;-41
2023/09/15 08:15:19;;;;;;;7.90;7.10;;;22.30;99.90;;;;;;5073036;28;20438;-39
2023/09/15 08:17:45;;;;;;;7.70;7.00;;;22.20;99.90;;;;;;5073254;28;20467;-41
2023/09/15 08:20:11;;;;;;;8.20;7.10;;;22.40;99.90;;;;;;5073310;28;20463;-42
2023/09/15 08:22:38;;;;;;;11.17;7.27;;;22.50;99.90;;;;;;5072379;28;20209;-38
2023/09/15 08:25:05;;;;;;;6.97;6.40;;;22.70;99.90;;;;;;5057364;28;20408;-38
2023/09/15 08:27:30;;;;;;;6.90;5.63;;;22.90;99.90;;;;;;5073965;28;20423;-39
2023/09/15 08:29:56;;;;;;;6.50;5.90;;;23.20;99.90;;;;;;5072847;28;20509;-40
2023/09/15 08:32:22;;;;;;;7.13;6.43;;;23.70;99.90;;;;;;5074020;28;20193;-39
2023/09/15 08:34:47;;;;;;;6.43;5.93;;;24.10;99.90;;;;;;5073053;28;20185;-41
2023/09/15 08:37:13;;;;;;;6.57;5.97;;;24.40;20.80;;;;;;5056294;28;20188;-40
2023/09/15 08:39:38;;;;;;;7.03;6.37;;;24.60;13.50;;;;;;5073183;28;20283;-40
2023/09/15 08:42:12;;;;;;;6.40;5.90;;;24.90;1.00;;;;;;5072950;28;20182;-41
2023/09/15 08:44:39;;;;;;;7.17;6.50;;;25.20;1.00;;;;;;5056851;28;20196;-40
2023/09/15 08:47:05;;;;;;;6.63;6.03;;;25.60;1.00;;;;;;5056178;28;20430;-39
2023/09/15 08:49:31;;;;;;;6.20;5.70;;;25.90;1.00;;;;;;5073281;28;20518;-39
2023/09/15 08:51:57;;;;;;;6.80;6.10;;;26.30;1.00;;;;;;5056042;28;20801;-41
2023/09/15 08:54:23;;;;;;;6.13;5.63;;;26.50;1.00;;;;;;5072588;28;20431;-39
2023/09/15 08:56:49;;;;;;;7.97;7.20;;;26.30;1.00;;;;;;5065784;28;20444;-40
2023/09/15 08:59:16;;;;;;;7.80;7.20;;;26.30;1.00;;;;;;5051709;28;20189;-40
2023/09/15 09:01:42;;;;;;;6.80;6.20;;;26.00;1.00;;;;;;5071369;28;20700;-39
2023/09/15 09:04:07;;;;;;;6.20;5.70;;;25.90;1.00;;;;;;5073485;28;20720;-39
2023/09/15 09:06:37;;;;;;;7.57;6.87;;;26.10;1.00;;;;;;5054648;28;20192;-41
2023/09/15 09:09:04;;;;;;;8.70;8.00;;;26.60;1.00;;;;;;5071639;28;20276;-42
2023/09/15 09:11:32;;;;;;;6.83;6.33;;;27.00;1.00;;;;;;5072559;28;20530;-40
2023/09/15 09:13:58;;;;;;;6.40;5.80;;;27.30;1.00;;;;;;5035073;28;20439;-41
2023/09/15 09:16:25;;;;;;;6.30;5.70;;;27.70;1.00;;;;;;5051450;28;20441;-39
2023/09/15 09:18:56;;;;;;;6.80;6.20;;;28.00;1.00;;;;;;5054350;28;20285;-39
2023/09/15 09:21:26;;;;;;;7.20;6.60;;;28.40;1.00;;;;;;5070736;28;20442;-40
2023/09/15 09:23:51;;;;;;;6.70;6.10;;;28.60;1.00;;;;;;5051945;28;20499;-40
2023/09/15 09:26:17;;;;;;;6.27;5.73;;;28.80;1.00;;;;;;5077261;28;20519;-40
2023/09/15 09:28:44;;;;;;;7.97;6.97;;;29.00;1.00;;;;;;5059303;28;20298;-42
2023/09/15 09:31:10;;;;;;;7.13;6.63;;;29.30;1.00;;;;;;5041774;28;20547;-37
2023/09/15 09:33:36;;;;;;;7.37;6.77;;;29.30;1.00;;;;;;5077060;28;20856;-40
2023/09/15 09:36:13;;;;;;;6.47;5.87;;;29.20;1.00;;;;;;5078005;28;20442;-39
2023/09/15 09:38:44;;;;;;;7.90;7.20;;;29.30;1.00;;;;;;5073782;28;20439;-39
2023/09/15 09:41:10;;;;;;;7.30;6.70;;;29.40;1.00;;;;;;5073568;28;20423;-40
2023/09/15 09:43:41;;;;;;;9.70;8.70;;;29.00;1.00;;;;;;5073728;28;20494;-40
2023/09/15 09:46:08;;;;;;;8.13;7.53;;;28.80;1.00;;;;;;5055903;28;20419;-41
2023/09/15 09:48:38;;;;;;;7.27;6.63;;;28.60;1.00;;;;;;5055830;28;20435;-42
2023/09/15 09:51:05;;;;;;;9.30;8.57;;;28.30;1.00;;;;;;5072556;28;20544;-39
2023/09/15 09:53:33;;;;;;;7.80;7.10;;;28.40;1.00;;;;;;5075449;28;20982;-39
2023/09/15 09:56:07;;;;;;;7.30;6.70;;;27.80;1.00;;;;;;5075063;28;20460;-39
2023/09/15 09:58:35;;;;;;;7.07;6.47;;;27.50;1.00;;;;;;5075984;28;20430;-40
2023/09/15 10:01:04;;;;;;;8.53;7.73;;;27.70;1.00;;;;;;5076301;28;20598;-39
2023/09/15 10:03:29;;;;;;;8.33;7.63;;;28.00;1.00;;;;;;5076355;28;20478;-39
2023/09/15 10:05:55;;;;;;;7.47;6.87;;;28.00;1.00;;;;;;5075344;28;20948;-39
2023/09/15 10:08:22;;;;;;;7.50;6.90;;;28.10;1.00;;;;;;5056476;28;20224;-41
2023/09/15 10:10:50;;;;;;;7.60;7.00;;;28.00;1.00;;;;;;5077367;28;20659;-39
2023/09/15 10:13:16;;;;;;;10.00;9.00;;;28.10;1.00;;;;;;5075274;28;20573;-40
2023/09/15 10:15:43;;;;;;;7.90;7.23;;;27.60;1.00;;;;;;5073358;28;20428;-40
2023/09/15 10:18:12;;;;;;;7.57;6.87;;;27.50;1.00;;;;;;5073979;28;20522;-39
2023/09/15 10:20:41;;;;;;;8.57;7.87;;;27.80;1.00;;;;;;5073260;28;20496;-40
2023/09/15 10:23:08;;;;;;;8.60;7.80;;;27.80;1.00;;;;;;5072285;28;20470;-39
2023/09/15 10:25:52;;;;;;;6.87;6.37;;;27.90;1.00;;;;;;5055953;28;20407;-41
2023/09/15 10:28:18;;;;;;;7.23;6.67;;;28.30;1.00;;;;;;5073739;28;20403;-39
2023/09/15 10:30:44;;;;;;;7.80;7.00;;;29.00;1.00;;;;;;5072664;28;20423;-40
2023/09/15 10:33:10;;;;;;;7.67;7.03;;;29.50;1.00;;;;;;5056298;28;20737;-40
2023/09/15 10:35:45;;;;;;;7.43;6.80;;;30.20;1.00;;;;;;5073297;28;20208;-41
2023/09/15 10:38:11;;;;;;;7.47;6.97;;;30.60;1.00;;;;;;5073962;28;20423;-40
2023/09/15 10:40:48;;;;;;;8.53;7.93;;;30.60;1.00;;;;;;5073925;28;20416;-39
2023/09/15 10:43:17;;;;;;;7.20;6.60;;;30.80;1.00;;;;;;5057041;28;20205;-40
2023/09/15 10:45:53;;;;;;;8.30;7.60;;;30.80;1.00;;;;;;5073544;28;20583;-39
2023/09/15 10:48:20;;;;;;;8.30;7.53;;;30.50;1.00;;;;;;5072560;28;20427;-41
2023/09/15 10:50:46;;;;;;;8.13;7.53;;;29.70;1.00;;;;;;5055860;28;20471;-39
2023/09/15 10:53:12;;;;;;;7.67;6.97;;;29.40;1.00;;;;;;5056033;28;20809;-36
2023/09/15 10:55:38;;;;;;;7.63;6.93;;;29.40;1.00;;;;;;5074841;28;20181;-39
2023/09/15 10:58:04;;;;;;;8.07;7.40;;;29.80;1.00;;;;;;5074335;28;20439;-40
2023/09/15 11:00:33;;;;;;;7.47;6.80;;;30.40;1.00;;;;;;5075022;28;20450;-40
2023/09/15 11:03:00;;;;;;;7.40;6.73;;;31.10;1.00;;;;;;5073447;28;20748;-41
2023/09/15 11:05:29;;;;;;;7.20;6.60;;;31.80;1.00;;;;;;5055259;28;20701;-41
2023/09/15 11:07:56;;;;;;;6.73;6.20;;;32.60;1.00;;;;;;5054155;28;20546;-42
2023/09/15 11:10:32;;;;;;;7.70;7.07;;;33.10;1.00;;;;;;5074422;28;20504;-41
2023/09/15 11:13:02;;;;;;;6.70;6.10;;;33.60;1.00;;;;;;5069602;28;20724;-40
2023/09/15 11:15:28;;;;;;;8.40;7.03;;;34.30;1.00;;;;;;5072902;28;20398;-41
2023/09/15 11:17:54;;;;;;;6.60;6.10;;;34.60;1.00;;;;;;5055120;28;20398;-41
2023/09/15 11:20:20;;;;;;;6.63;6.03;;;34.40;1.00;;;;;;5073600;28;20189;-40
2023/09/15 11:22:46;;;;;;;7.40;6.70;;;34.40;1.00;;;;;;5054050;28;20489;-40
2023/09/15 11:25:12;;;;;;;7.10;6.60;;;34.20;1.00;;;;;;5072873;28;20413;-43
2023/09/15 11:27:38;;;;;;;7.43;6.87;;;34.00;1.00;;;;;;5043986;28;20430;-42
2023/09/15 11:30:04;;;;;;;7.27;6.67;;;33.50;1.00;;;;;;5066901;28;20600;-45
2023/09/15 11:32:31;;;;;;;7.97;7.37;;;33.00;1.00;;;;;;5070290;28;20227;-44
2023/09/15 11:34:57;;;;;;;7.27;6.70;;;33.00;1.00;;;;;;5073022;28;20510;-41
2023/09/15 11:37:23;;;;;;;7.00;6.50;;;33.00;1.00;;;;;;5073498;28;20804;-40
2023/09/15 11:39:50;;;;;;;6.60;6.10;;;33.30;1.00;;;;;;5071207;28;20193;-41
2023/09/15 11:42:16;;;;;;;6.27;5.80;;;33.50;1.00;;;;;;5053915;28;20502;-43
2023/09/15 11:44:43;;;;;;;6.83;6.20;;;33.80;1.00;;;;;;5054877;28;20844;-42
2023/09/15 11:47:10;;;;;;;9.37;8.17;;;34.10;1.00;;;;;;5072719;28;20188;-40
2023/09/15 11:49:36;;;;;;;8.60;7.80;;;34.30;1.00;;;;;;5072723;28;20420;-39
2023/09/15 11:52:03;;;;;;;8.17;6.00;;;33.40;1.00;;;;;;5072338;28;20415;-43
2023/09/15 11:54:30;;;;;;;6.77;6.27;;;33.10;1.00;;;;;;5073258;28;20192;-43
2023/09/15 11:56:56;;;;;;;7.63;7.03;;;33.40;1.00;;;;;;5055111;28;20432;-41
2023/09/15 11:59:22;;;;;;;7.33;6.63;;;34.00;1.00;;;;;;5074427;28;20694;-40
2023/09/15 12:01:48;;;;;;;8.00;7.40;;;34.20;1.00;;;;;;5057152;28;20491;-40
2023/09/15 12:04:14;;;;;;;6.90;6.20;;;34.40;1.00;;;;;;5039623;28;20437;-40
2023/09/15 12:06:41;;;;;;;7.53;6.93;;;34.50;1.00;;;;;;5072422;28;20565;-41
2023/09/15 12:09:08;;;;;;;7.63;7.13;;;33.80;1.00;;;;;;5056557;28;20427;-42
2023/09/15 12:11:33;;;;;;;7.87;7.30;;;33.40;1.00;;;;;;5040583;28;20406;-41
2023/09/15 12:14:06;;;;;;;7.30;6.70;;;32.70;1.00;;;;;;5054404;28;20477;-42
2023/09/15 12:16:32;;;;;;;7.80;7.20;;;32.40;1.00;;;;;;5073472;28;20509;-39
2023/09/15 12:19:01;;;;;;;7.00;6.50;;;32.70;1.00;;;;;;5039694;28;20485;-39
2023/09/15 12:21:28;;;;;;;6.40;5.90;;;32.90;1.00;;;;;;5073230;28;20406;-39
2023/09/15 12:24:09;;;;;;;8.37;6.73;;;33.10;1.00;;;;;;5068538;28;20493;-39
2023/09/15 12:26:36;;;;;;;7.00;6.40;;;32.80;1.00;;;;;;5070928;28;20513;-42
2023/09/15 12:29:02;;;;;;;5.97;5.47;;;32.50;1.00;;;;;;5071769;28;20475;-41
2023/09/15 12:31:27;;;;;;;6.00;5.50;;;32.90;1.00;;;;;;5055935;28;20416;-40
2023/09/15 12:33:54;;;;;;;6.80;6.30;;;33.60;1.00;;;;;;5070160;28;20279;-40
2023/09/15 12:36:21;;;;;;;5.30;4.80;;;34.50;1.00;;;;;;5071885;28;20330;-43
2023/09/15 12:38:47;;;;;;;5.80;5.20;;;35.10;1.00;;;;;;5072188;28;20423;-41
2023/09/15 12:41:16;;;;;;;5.80;5.40;;;35.70;1.00;;;;;;5074320;28;20390;-39
2023/09/15 12:43:43;;;;;;;7.43;6.83;;;35.50;1.00;;;;;;5072333;28;20535;-42
2023/09/15 12:46:09;;;;;;;6.27;5.87;;;35.10;1.00;;;;;;5056097;28;20695;-37
2023/09/15 12:48:34;;;;;;;6.50;5.10;;;33.50;1.00;;;;;;5070608;28;20432;-41
2023/09/15 12:51:00;;;;;;;6.37;5.77;;;32.80;1.00;;;;;;5052275;28;20589;-40